sensor_id;sensor_type;location;lat;lon;timestamp;P1;durP1;ratioP1;P2;durP2;ratioP2
19189;SDS011;9727;50.200;19.038;2024-01-30T00:01:47;49.20;;;23.27;;
19189;SDS011;9727;50.200;19.038;2024-01-30T00:04:13;41.07;;;20.30;;
19189;SDS011;9727;50.200;19.038;2024-01-30T00:06:44;41.13;;;20.50;;
19189;SDS011;9727;50.200;19.038;2024-01-30T00:09:12;45.47;;;20.60;;
19189;SDS011;9727;50.200;19.038;2024-01-30T00:11:38;45.03;;;19.57;;
19189;SDS011;9727;50.200;19.038;2024-01-30T00:14:05;39.40;;;18.67;;
19189;SDS011;9727;50.200;19.038;2024-01-30T00:16:31;38.13;;;18.07;;
19189;SDS011;9727;50.200;19.038;2024-01-30T00:18:58;33.50;;;16.63;;
19189;SDS011;9727;50.200;19.038;2024-01-30T00:21:27;33.93;;;16.37;;
19189;SDS011;9727;50.200;19.038;2024-01-30T00:23:53;32.53;;;16.43;;
19189;SDS011;9727;50.200;19.038;2024-01-30T00:26:21;35.80;;;16.43;;
19189;SDS011;9727;50.200;19.038;2024-01-30T00:28:48;37.50;;;16.80;;
19189;SDS011;9727;50.200;19.038;2024-01-30T00:31:14;31.57;;;15.07;;
19189;SDS011;9727;50.200;19.038;2024-01-30T00:33:41;31.23;;;15.27;;
19189;SDS011;9727;50.200;19.038;2024-01-30T00:36:07;32.90;;;14.90;;
19189;SDS011;9727;50.200;19.038;2024-01-30T00:38:34;29.10;;;14.73;;
19189;SDS011;9727;50.200;19.038;2024-01-30T00:41:01;28.37;;;15.17;;
19189;SDS011;9727;50.200;19.038;2024-01-30T00:43:29;28.97;;;14.43;;
19189;SDS011;9727;50.200;19.038;2024-01-30T00:45:56;32.37;;;14.83;;
19189;SDS011;9727;50.200;19.038;2024-01-30T00:48:23;30.60;;;14.33;;
19189;SDS011;9727;50.200;19.038;2024-01-30T00:50:49;28.00;;;14.53;;
19189;SDS011;9727;50.200;19.038;2024-01-30T00:53:20;30.90;;;13.87;;
19189;SDS011;9727;50.200;19.038;2024-01-30T00:55:46;30.40;;;14.13;;
19189;SDS011;9727;50.200;19.038;2024-01-30T00:58:13;27.17;;;13.17;;
19189;SDS011;9727;50.200;19.038;2024-01-30T01:00:41;27.73;;;13.37;;
19189;SDS011;9727;50.200;19.038;2024-01-30T01:03:07;30.40;;;13.33;;
19189;SDS011;9727;50.200;19.038;2024-01-30T01:05:34;28.37;;;13.40;;
19189;SDS011;9727;50.200;19.038;2024-01-30T01:08:00;27.87;;;13.30;;
19189;SDS011;9727;50.200;19.038;2024-01-30T01:10:27;36.20;;;14.60;;
19189;SDS011;9727;50.200;19.038;2024-01-30T01:12:53;27.43;;;14.10;;
19189;SDS011;9727;50.200;19.038;2024-01-30T01:15:20;27.70;;;13.20;;
19189;SDS011;9727;50.200;19.038;2024-01-30T01:17:48;29.17;;;13.40;;
19189;SDS011;9727;50.200;19.038;2024-01-30T01:20:15;32.10;;;13.00;;
19189;SDS011;9727;50.200;19.038;2024-01-30T01:22:45;27.53;;;12.93;;
19189;SDS011;9727;50.200;19.038;2024-01-30T01:25:12;27.47;;;13.10;;
19189;SDS011;9727;50.200;19.038;2024-01-30T01:27:38;29.70;;;13.50;;
19189;SDS011;9727;50.200;19.038;2024-01-30T01:30:07;26.93;;;13.50;;
19189;SDS011;9727;50.200;19.038;2024-01-30T01:32:34;25.40;;;12.93;;
19189;SDS011;9727;50.200;19.038;2024-01-30T01:35:03;27.37;;;13.07;;
19189;SDS011;9727;50.200;19.038;2024-01-30T01:37:30;30.40;;;13.67;;
19189;SDS011;9727;50.200;19.038;2024-01-30T01:39:57;28.40;;;13.33;;
19189;SDS011;9727;50.200;19.038;2024-01-30T01:42:23;29.13;;;13.27;;
19189;SDS011;9727;50.200;19.038;2024-01-30T01:44:50;27.07;;;13.20;;
19189;SDS011;9727;50.200;19.038;2024-01-30T01:47:19;29.37;;;13.23;;
19189;SDS011;9727;50.200;19.038;2024-01-30T01:49:46;28.80;;;13.27;;
19189;SDS011;9727;50.200;19.038;2024-01-30T01:52:14;25.77;;;12.17;;
19189;SDS011;9727;50.200;19.038;2024-01-30T01:54:45;25.37;;;12.20;;
19189;SDS011;9727;50.200;19.038;2024-01-30T01:57:12;27.13;;;12.37;;
19189;SDS011;9727;50.200;19.038;2024-01-30T01:59:39;22.73;;;10.97;;
19189;SDS011;9727;50.200;19.038;2024-01-30T02:02:05;24.00;;;12.43;;
19189;SDS011;9727;50.200;19.038;2024-01-30T02:04:35;23.20;;;11.60;;
19189;SDS011;9727;50.200;19.038;2024-01-30T02:07:01;22.37;;;11.03;;
19189;SDS011;9727;50.200;19.038;2024-01-30T02:09:29;22.40;;;11.20;;
19189;SDS011;9727;50.200;19.038;2024-01-30T02:11:55;23.67;;;11.33;;
19189;SDS011;9727;50.200;19.038;2024-01-30T02:14:22;23.33;;;11.67;;
19189;SDS011;9727;50.200;19.038;2024-01-30T02:16:48;24.20;;;11.20;;
19189;SDS011;9727;50.200;19.038;2024-01-30T02:19:15;21.27;;;10.83;;
19189;SDS011;9727;50.200;19.038;2024-01-30T02:21:46;19.33;;;9.93;;
19189;SDS011;9727;50.200;19.038;2024-01-30T02:24:13;20.97;;;10.97;;
19189;SDS011;9727;50.200;19.038;2024-01-30T02:26:39;23.37;;;10.27;;
19189;SDS011;9727;50.200;19.038;2024-01-30T02:29:06;23.23;;;10.80;;
19189;SDS011;9727;50.200;19.038;2024-01-30T02:31:32;21.33;;;11.03;;
19189;SDS011;9727;50.200;19.038;2024-01-30T02:33:59;21.23;;;10.33;;
19189;SDS011;9727;50.200;19.038;2024-01-30T02:36:25;22.20;;;10.43;;
19189;SDS011;9727;50.200;19.038;2024-01-30T02:38:53;18.80;;;10.23;;
19189;SDS011;9727;50.200;19.038;2024-01-30T02:41:20;25.77;;;11.60;;
19189;SDS011;9727;50.200;19.038;2024-01-30T02:43:46;19.20;;;10.07;;
19189;SDS011;9727;50.200;19.038;2024-01-30T02:46:13;20.67;;;10.20;;
19189;SDS011;9727;50.200;19.038;2024-01-30T02:48:39;20.50;;;10.27;;
19189;SDS011;9727;50.200;19.038;2024-01-30T02:51:06;23.07;;;10.53;;
19189;SDS011;9727;50.200;19.038;2024-01-30T02:53:32;21.63;;;10.27;;
19189;SDS011;9727;50.200;19.038;2024-01-30T02:56:02;21.93;;;10.37;;
19189;SDS011;9727;50.200;19.038;2024-01-30T02:58:29;23.23;;;10.37;;
19189;SDS011;9727;50.200;19.038;2024-01-30T03:00:55;21.77;;;10.77;;
19189;SDS011;9727;50.200;19.038;2024-01-30T03:03:22;19.63;;;9.93;;
19189;SDS011;9727;50.200;19.038;2024-01-30T03:05:48;21.63;;;10.03;;
19189;SDS011;9727;50.200;19.038;2024-01-30T03:08:15;20.67;;;10.00;;
19189;SDS011;9727;50.200;19.038;2024-01-30T03:10:50;20.63;;;9.83;;
19189;SDS011;9727;50.200;19.038;2024-01-30T03:13:21;17.90;;;10.07;;
19189;SDS011;9727;50.200;19.038;2024-01-30T03:15:50;22.27;;;9.77;;
19189;SDS011;9727;50.200;19.038;2024-01-30T03:18:20;19.83;;;9.70;;
19189;SDS011;9727;50.200;19.038;2024-01-30T03:20:46;19.77;;;9.80;;
19189;SDS011;9727;50.200;19.038;2024-01-30T03:23:13;17.30;;;10.60;;
19189;SDS011;9727;50.200;19.038;2024-01-30T03:25:39;19.27;;;9.77;;
19189;SDS011;9727;50.200;19.038;2024-01-30T03:28:06;19.53;;;10.30;;
19189;SDS011;9727;50.200;19.038;2024-01-30T03:30:35;19.07;;;9.83;;
19189;SDS011;9727;50.200;19.038;2024-01-30T03:33:02;23.10;;;10.23;;
19189;SDS011;9727;50.200;19.038;2024-01-30T03:35:28;22.90;;;10.70;;
19189;SDS011;9727;50.200;19.038;2024-01-30T03:37:55;17.33;;;9.80;;
19189;SDS011;9727;50.200;19.038;2024-01-30T03:40:21;22.10;;;9.57;;
19189;SDS011;9727;50.200;19.038;2024-01-30T03:42:48;20.00;;;10.70;;
19189;SDS011;9727;50.200;19.038;2024-01-30T03:45:14;19.60;;;9.17;;
19189;SDS011;9727;50.200;19.038;2024-01-30T03:47:46;17.63;;;9.13;;
19189;SDS011;9727;50.200;19.038;2024-01-30T03:50:12;18.33;;;9.63;;
19189;SDS011;9727;50.200;19.038;2024-01-30T03:52:39;19.87;;;9.63;;
19189;SDS011;9727;50.200;19.038;2024-01-30T03:55:05;19.67;;;9.97;;
19189;SDS011;9727;50.200;19.038;2024-01-30T03:57:32;18.77;;;9.53;;
19189;SDS011;9727;50.200;19.038;2024-01-30T03:59:59;19.47;;;9.87;;
19189;SDS011;9727;50.200;19.038;2024-01-30T04:02:25;20.50;;;9.20;;
19189;SDS011;9727;50.200;19.038;2024-01-30T04:04:53;17.73;;;9.40;;
19189;SDS011;9727;50.200;19.038;2024-01-30T04:07:20;18.80;;;10.17;;
19189;SDS011;9727;50.200;19.038;2024-01-30T04:09:46;21.47;;;10.70;;
19189;SDS011;9727;50.200;19.038;2024-01-30T04:12:12;20.47;;;10.07;;
19189;SDS011;9727;50.200;19.038;2024-01-30T04:14:39;18.27;;;9.50;;
19189;SDS011;9727;50.200;19.038;2024-01-30T04:17:05;22.20;;;10.43;;
19189;SDS011;9727;50.200;19.038;2024-01-30T04:19:32;20.43;;;10.13;;
19189;SDS011;9727;50.200;19.038;2024-01-30T04:22:00;23.63;;;10.67;;
19189;SDS011;9727;50.200;19.038;2024-01-30T04:24:26;19.70;;;10.53;;
19189;SDS011;9727;50.200;19.038;2024-01-30T04:26:53;17.37;;;10.47;;
19189;SDS011;9727;50.200;19.038;2024-01-30T04:32:04;18.23;;;9.87;;
19189;SDS011;9727;50.200;19.038;2024-01-30T04:34:31;20.57;;;9.50;;
19189;SDS011;9727;50.200;19.038;2024-01-30T04:36:57;19.17;;;9.97;;
19189;SDS011;9727;50.200;19.038;2024-01-30T04:39:25;20.57;;;10.30;;
19189;SDS011;9727;50.200;19.038;2024-01-30T04:41:52;21.50;;;9.93;;
19189;SDS011;9727;50.200;19.038;2024-01-30T04:44:20;18.97;;;9.63;;
19189;SDS011;9727;50.200;19.038;2024-01-30T04:46:46;17.67;;;10.23;;
19189;SDS011;9727;50.200;19.038;2024-01-30T04:49:13;22.07;;;9.70;;
19189;SDS011;9727;50.200;19.038;2024-01-30T04:51:39;20.33;;;10.00;;
19189;SDS011;9727;50.200;19.038;2024-01-30T04:54:06;18.93;;;9.47;;
19189;SDS011;9727;50.200;19.038;2024-01-30T04:56:34;20.80;;;9.70;;
19189;SDS011;9727;50.200;19.038;2024-01-30T04:59:01;19.13;;;10.00;;
19189;SDS011;9727;50.200;19.038;2024-01-30T05:01:28;20.80;;;10.13;;
19189;SDS011;9727;50.200;19.038;2024-01-30T05:03:54;21.20;;;9.90;;
19189;SDS011;9727;50.200;19.038;2024-01-30T05:06:24;23.80;;;10.17;;
19189;SDS011;9727;50.200;19.038;2024-01-30T05:08:51;17.43;;;9.07;;
19189;SDS011;9727;50.200;19.038;2024-01-30T05:11:20;22.83;;;10.50;;
19189;SDS011;9727;50.200;19.038;2024-01-30T05:13:48;22.97;;;9.37;;
19189;SDS011;9727;50.200;19.038;2024-01-30T05:16:15;23.10;;;9.90;;
19189;SDS011;9727;50.200;19.038;2024-01-30T05:18:50;17.37;;;8.73;;
19189;SDS011;9727;50.200;19.038;2024-01-30T05:21:20;21.07;;;10.13;;
19189;SDS011;9727;50.200;19.038;2024-01-30T05:23:46;19.23;;;9.73;;
19189;SDS011;9727;50.200;19.038;2024-01-30T05:26:13;22.17;;;10.80;;
19189;SDS011;9727;50.200;19.038;2024-01-30T05:28:39;18.53;;;9.67;;
19189;SDS011;9727;50.200;19.038;2024-01-30T05:31:07;17.93;;;9.77;;
19189;SDS011;9727;50.200;19.038;2024-01-30T05:33:34;21.30;;;10.00;;
19189;SDS011;9727;50.200;19.038;2024-01-30T05:36:00;19.27;;;9.87;;
19189;SDS011;9727;50.200;19.038;2024-01-30T05:38:27;17.70;;;9.27;;
19189;SDS011;9727;50.200;19.038;2024-01-30T05:40:53;18.27;;;9.90;;
19189;SDS011;9727;50.200;19.038;2024-01-30T05:43:20;21.80;;;10.40;;
19189;SDS011;9727;50.200;19.038;2024-01-30T05:45:47;21.73;;;10.47;;
19189;SDS011;9727;50.200;19.038;2024-01-30T05:48:14;22.30;;;10.50;;
19189;SDS011;9727;50.200;19.038;2024-01-30T05:50:45;19.03;;;10.23;;
19189;SDS011;9727;50.200;19.038;2024-01-30T05:53:12;19.60;;;9.87;;
19189;SDS011;9727;50.200;19.038;2024-01-30T05:55:38;17.57;;;10.63;;
19189;SDS011;9727;50.200;19.038;2024-01-30T05:58:05;23.57;;;10.73;;
19189;SDS011;9727;50.200;19.038;2024-01-30T06:00:32;19.73;;;10.77;;
19189;SDS011;9727;50.200;19.038;2024-01-30T06:02:58;22.90;;;10.50;;
19189;SDS011;9727;50.200;19.038;2024-01-30T06:05:26;17.97;;;9.60;;
19189;SDS011;9727;50.200;19.038;2024-01-30T06:07:52;20.07;;;10.17;;
19189;SDS011;9727;50.200;19.038;2024-01-30T06:10:20;25.57;;;10.87;;
19189;SDS011;9727;50.200;19.038;2024-01-30T06:12:46;28.27;;;11.00;;
19189;SDS011;9727;50.200;19.038;2024-01-30T06:15:13;24.07;;;11.10;;
19189;SDS011;9727;50.200;19.038;2024-01-30T06:17:39;20.80;;;10.40;;
19189;SDS011;9727;50.200;19.038;2024-01-30T06:20:06;23.00;;;11.27;;
19189;SDS011;9727;50.200;19.038;2024-01-30T06:22:34;25.70;;;11.80;;
19189;SDS011;9727;50.200;19.038;2024-01-30T06:25:01;26.50;;;10.67;;
19189;SDS011;9727;50.200;19.038;2024-01-30T06:27:27;25.30;;;12.37;;
19189;SDS011;9727;50.200;19.038;2024-01-30T06:29:54;22.93;;;11.93;;
19189;SDS011;9727;50.200;19.038;2024-01-30T06:32:21;20.37;;;10.80;;
19189;SDS011;9727;50.200;19.038;2024-01-30T06:34:47;18.47;;;10.50;;
19189;SDS011;9727;50.200;19.038;2024-01-30T06:37:14;25.10;;;12.50;;
19189;SDS011;9727;50.200;19.038;2024-01-30T06:39:42;26.50;;;11.77;;
19189;SDS011;9727;50.200;19.038;2024-01-30T06:42:09;24.70;;;11.20;;
19189;SDS011;9727;50.200;19.038;2024-01-30T06:44:36;22.47;;;11.63;;
19189;SDS011;9727;50.200;19.038;2024-01-30T06:47:02;23.83;;;11.53;;
19189;SDS011;9727;50.200;19.038;2024-01-30T06:49:29;23.47;;;12.00;;
19189;SDS011;9727;50.200;19.038;2024-01-30T06:51:56;30.47;;;12.60;;
19189;SDS011;9727;50.200;19.038;2024-01-30T06:54:23;25.43;;;13.17;;
19189;SDS011;9727;50.200;19.038;2024-01-30T06:56:51;29.13;;;13.47;;
19189;SDS011;9727;50.200;19.038;2024-01-30T06:59:19;22.27;;;12.43;;
19189;SDS011;9727;50.200;19.038;2024-01-30T07:01:46;26.10;;;12.73;;
19189;SDS011;9727;50.200;19.038;2024-01-30T07:04:13;30.93;;;14.47;;
19189;SDS011;9727;50.200;19.038;2024-01-30T07:06:39;30.73;;;14.27;;
19189;SDS011;9727;50.200;19.038;2024-01-30T07:09:06;35.33;;;16.50;;
19189;SDS011;9727;50.200;19.038;2024-01-30T07:11:33;36.00;;;16.47;;
19189;SDS011;9727;50.200;19.038;2024-01-30T07:14:01;35.70;;;17.70;;
19189;SDS011;9727;50.200;19.038;2024-01-30T07:16:29;38.63;;;16.33;;
19189;SDS011;9727;50.200;19.038;2024-01-30T07:18:55;29.57;;;15.10;;
19189;SDS011;9727;50.200;19.038;2024-01-30T07:21:22;37.07;;;17.67;;
19189;SDS011;9727;50.200;19.038;2024-01-30T07:23:53;40.47;;;18.97;;
19189;SDS011;9727;50.200;19.038;2024-01-30T07:26:19;47.30;;;21.77;;
19189;SDS011;9727;50.200;19.038;2024-01-30T07:28:47;45.67;;;22.43;;
19189;SDS011;9727;50.200;19.038;2024-01-30T07:31:15;51.83;;;23.63;;
19189;SDS011;9727;50.200;19.038;2024-01-30T07:33:49;53.07;;;23.33;;
19189;SDS011;9727;50.200;19.038;2024-01-30T07:36:15;51.20;;;25.67;;
19189;SDS011;9727;50.200;19.038;2024-01-30T07:38:46;55.93;;;24.27;;
19189;SDS011;9727;50.200;19.038;2024-01-30T07:41:13;50.83;;;24.33;;
19189;SDS011;9727;50.200;19.038;2024-01-30T07:43:39;47.60;;;24.00;;
19189;SDS011;9727;50.200;19.038;2024-01-30T07:46:06;49.53;;;23.80;;
19189;SDS011;9727;50.200;19.038;2024-01-30T07:48:34;46.17;;;22.50;;
19189;SDS011;9727;50.200;19.038;2024-01-30T07:51:00;48.30;;;21.57;;
19189;SDS011;9727;50.200;19.038;2024-01-30T07:53:29;42.20;;;19.83;;
19189;SDS011;9727;50.200;19.038;2024-01-30T07:55:55;41.97;;;21.43;;
19189;SDS011;9727;50.200;19.038;2024-01-30T07:58:22;45.53;;;21.93;;
19189;SDS011;9727;50.200;19.038;2024-01-30T08:00:48;42.63;;;20.37;;
19189;SDS011;9727;50.200;19.038;2024-01-30T08:03:20;39.73;;;19.77;;
19189;SDS011;9727;50.200;19.038;2024-01-30T08:05:48;37.00;;;18.37;;
19189;SDS011;9727;50.200;19.038;2024-01-30T08:08:14;43.60;;;18.70;;
19189;SDS011;9727;50.200;19.038;2024-01-30T08:10:44;35.17;;;17.63;;
19189;SDS011;9727;50.200;19.038;2024-01-30T08:13:10;40.60;;;17.60;;
19189;SDS011;9727;50.200;19.038;2024-01-30T08:15:37;31.93;;;16.27;;
19189;SDS011;9727;50.200;19.038;2024-01-30T08:18:04;35.07;;;16.10;;
19189;SDS011;9727;50.200;19.038;2024-01-30T08:20:32;32.00;;;15.20;;
19189;SDS011;9727;50.200;19.038;2024-01-30T08:23:00;27.30;;;15.63;;
19189;SDS011;9727;50.200;19.038;2024-01-30T08:25:26;33.60;;;14.90;;
19189;SDS011;9727;50.200;19.038;2024-01-30T08:27:53;36.53;;;15.80;;
19189;SDS011;9727;50.200;19.038;2024-01-30T08:30:20;29.03;;;14.87;;
19189;SDS011;9727;50.200;19.038;2024-01-30T08:32:46;31.33;;;14.27;;
19189;SDS011;9727;50.200;19.038;2024-01-30T08:35:13;29.37;;;15.10;;
19189;SDS011;9727;50.200;19.038;2024-01-30T08:37:41;27.73;;;13.87;;
19189;SDS011;9727;50.200;19.038;2024-01-30T08:40:09;31.50;;;15.00;;
19189;SDS011;9727;50.200;19.038;2024-01-30T08:42:36;31.83;;;14.67;;
19189;SDS011;9727;50.200;19.038;2024-01-30T08:45:03;27.70;;;14.50;;
19189;SDS011;9727;50.200;19.038;2024-01-30T08:47:30;32.40;;;14.67;;
19189;SDS011;9727;50.200;19.038;2024-01-30T08:49:56;27.67;;;13.90;;
19189;SDS011;9727;50.200;19.038;2024-01-30T08:52:23;30.53;;;13.77;;
19189;SDS011;9727;50.200;19.038;2024-01-30T08:54:49;27.70;;;13.37;;
19189;SDS011;9727;50.200;19.038;2024-01-30T08:57:23;26.03;;;12.47;;
19189;SDS011;9727;50.200;19.038;2024-01-30T08:59:53;26.67;;;12.07;;
19189;SDS011;9727;50.200;19.038;2024-01-30T09:02:20;25.27;;;11.53;;
19189;SDS011;9727;50.200;19.038;2024-01-30T09:04:46;25.90;;;11.77;;
19189;SDS011;9727;50.200;19.038;2024-01-30T09:07:13;25.60;;;11.33;;
19189;SDS011;9727;50.200;19.038;2024-01-30T09:09:39;25.47;;;10.23;;
19189;SDS011;9727;50.200;19.038;2024-01-30T09:12:07;25.07;;;10.63;;
19189;SDS011;9727;50.200;19.038;2024-01-30T09:14:36;21.77;;;9.10;;
19189;SDS011;9727;50.200;19.038;2024-01-30T09:17:02;24.60;;;10.13;;
19189;SDS011;9727;50.200;19.038;2024-01-30T09:19:29;18.77;;;9.60;;
19189;SDS011;9727;50.200;19.038;2024-01-30T09:21:56;21.40;;;9.40;;
19189;SDS011;9727;50.200;19.038;2024-01-30T09:24:22;15.77;;;8.97;;
19189;SDS011;9727;50.200;19.038;2024-01-30T09:26:49;19.93;;;9.13;;
19189;SDS011;9727;50.200;19.038;2024-01-30T09:29:15;18.50;;;9.20;;
19189;SDS011;9727;50.200;19.038;2024-01-30T09:31:46;16.77;;;9.00;;
19189;SDS011;9727;50.200;19.038;2024-01-30T09:34:13;21.07;;;9.13;;
19189;SDS011;9727;50.200;19.038;2024-01-30T09:36:40;16.50;;;9.17;;
19189;SDS011;9727;50.200;19.038;2024-01-30T09:39:05;18.40;;;9.10;;
19189;SDS011;9727;50.200;19.038;2024-01-30T09:41:33;17.73;;;8.70;;
19189;SDS011;9727;50.200;19.038;2024-01-30T09:44:03;19.00;;;9.30;;
19189;SDS011;9727;50.200;19.038;2024-01-30T09:46:31;19.40;;;10.00;;
19189;SDS011;9727;50.200;19.038;2024-01-30T09:48:59;20.00;;;9.07;;
19189;SDS011;9727;50.200;19.038;2024-01-30T09:51:26;18.40;;;9.13;;
19189;SDS011;9727;50.200;19.038;2024-01-30T09:53:54;16.03;;;8.33;;
19189;SDS011;9727;50.200;19.038;2024-01-30T09:56:21;18.13;;;8.03;;
19189;SDS011;9727;50.200;19.038;2024-01-30T09:58:48;17.33;;;8.33;;
19189;SDS011;9727;50.200;19.038;2024-01-30T10:01:14;13.63;;;7.47;;
19189;SDS011;9727;50.200;19.038;2024-01-30T10:03:45;17.17;;;8.40;;
19189;SDS011;9727;50.200;19.038;2024-01-30T10:06:13;18.97;;;9.07;;
19189;SDS011;9727;50.200;19.038;2024-01-30T10:08:41;19.10;;;8.33;;
19189;SDS011;9727;50.200;19.038;2024-01-30T10:11:08;17.70;;;8.40;;
19189;SDS011;9727;50.200;19.038;2024-01-30T10:13:35;19.10;;;8.27;;
19189;SDS011;9727;50.200;19.038;2024-01-30T10:16:01;14.50;;;7.83;;
19189;SDS011;9727;50.200;19.038;2024-01-30T10:18:30;15.60;;;7.97;;
19189;SDS011;9727;50.200;19.038;2024-01-30T10:20:57;16.93;;;8.00;;
19189;SDS011;9727;50.200;19.038;2024-01-30T10:23:25;15.17;;;8.03;;
19189;SDS011;9727;50.200;19.038;2024-01-30T10:25:51;15.80;;;7.80;;
19189;SDS011;9727;50.200;19.038;2024-01-30T10:28:20;15.97;;;8.47;;
19189;SDS011;9727;50.200;19.038;2024-01-30T10:30:46;18.03;;;8.43;;
19189;SDS011;9727;50.200;19.038;2024-01-30T10:33:13;14.70;;;8.00;;
19189;SDS011;9727;50.200;19.038;2024-01-30T10:35:40;15.10;;;7.67;;
19189;SDS011;9727;50.200;19.038;2024-01-30T10:38:06;13.80;;;8.07;;
19189;SDS011;9727;50.200;19.038;2024-01-30T10:40:36;13.03;;;7.57;;
19189;SDS011;9727;50.200;19.038;2024-01-30T10:43:04;14.90;;;7.30;;
19189;SDS011;9727;50.200;19.038;2024-01-30T10:45:31;13.23;;;7.30;;
19189;SDS011;9727;50.200;19.038;2024-01-30T10:47:58;13.50;;;7.20;;
19189;SDS011;9727;50.200;19.038;2024-01-30T10:50:25;11.77;;;7.03;;
19189;SDS011;9727;50.200;19.038;2024-01-30T10:52:53;13.93;;;7.17;;
19189;SDS011;9727;50.200;19.038;2024-01-30T10:55:21;14.87;;;6.83;;
19189;SDS011;9727;50.200;19.038;2024-01-30T10:57:49;14.57;;;7.73;;
19189;SDS011;9727;50.200;19.038;2024-01-30T11:00:19;16.00;;;7.20;;
19189;SDS011;9727;50.200;19.038;2024-01-30T11:02:48;18.20;;;6.97;;
19189;SDS011;9727;50.200;19.038;2024-01-30T11:05:22;13.00;;;7.00;;
19189;SDS011;9727;50.200;19.038;2024-01-30T11:07:49;12.83;;;6.53;;
19189;SDS011;9727;50.200;19.038;2024-01-30T11:10:16;14.67;;;6.67;;
19189;SDS011;9727;50.200;19.038;2024-01-30T11:12:46;14.40;;;7.00;;
19189;SDS011;9727;50.200;19.038;2024-01-30T11:15:20;12.50;;;6.80;;
19189;SDS011;9727;50.200;19.038;2024-01-30T11:17:49;13.33;;;6.73;;
19189;SDS011;9727;50.200;19.038;2024-01-30T11:20:23;13.23;;;7.20;;
19189;SDS011;9727;50.200;19.038;2024-01-30T11:22:53;16.27;;;7.30;;
19189;SDS011;9727;50.200;19.038;2024-01-30T11:25:20;14.30;;;7.07;;
19189;SDS011;9727;50.200;19.038;2024-01-30T11:27:49;13.77;;;6.43;;
19189;SDS011;9727;50.200;19.038;2024-01-30T11:30:27;13.43;;;6.00;;
19189;SDS011;9727;50.200;19.038;2024-01-30T11:33:00;13.60;;;6.77;;
19189;SDS011;9727;50.200;19.038;2024-01-30T11:35:26;13.73;;;7.00;;
19189;SDS011;9727;50.200;19.038;2024-01-30T11:37:53;14.13;;;7.40;;
19189;SDS011;9727;50.200;19.038;2024-01-30T11:40:20;13.40;;;6.53;;
19189;SDS011;9727;50.200;19.038;2024-01-30T11:42:47;12.40;;;7.03;;
19189;SDS011;9727;50.200;19.038;2024-01-30T11:45:15;13.43;;;6.90;;
19189;SDS011;9727;50.200;19.038;2024-01-30T11:47:47;12.40;;;7.27;;
19189;SDS011;9727;50.200;19.038;2024-01-30T11:50:13;11.93;;;6.33;;
19189;SDS011;9727;50.200;19.038;2024-01-30T11:52:40;11.27;;;6.40;;
19189;SDS011;9727;50.200;19.038;2024-01-30T11:55:08;13.70;;;7.27;;
19189;SDS011;9727;50.200;19.038;2024-01-30T11:57:35;11.50;;;6.80;;
19189;SDS011;9727;50.200;19.038;2024-01-30T12:00:02;11.53;;;6.60;;
19189;SDS011;9727;50.200;19.038;2024-01-30T12:02:33;12.73;;;6.77;;
19189;SDS011;9727;50.200;19.038;2024-01-30T12:05:04;14.30;;;6.97;;
19189;SDS011;9727;50.200;19.038;2024-01-30T12:07:30;11.93;;;6.70;;
19189;SDS011;9727;50.200;19.038;2024-01-30T12:09:57;11.73;;;7.00;;
19189;SDS011;9727;50.200;19.038;2024-01-30T12:12:24;13.53;;;7.33;;
19189;SDS011;9727;50.200;19.038;2024-01-30T12:14:51;13.33;;;6.73;;
19189;SDS011;9727;50.200;19.038;2024-01-30T12:17:25;17.53;;;7.30;;
19189;SDS011;9727;50.200;19.038;2024-01-30T12:19:51;14.60;;;7.17;;
19189;SDS011;9727;50.200;19.038;2024-01-30T12:22:30;14.10;;;7.07;;
19189;SDS011;9727;50.200;19.038;2024-01-30T12:24:58;12.53;;;7.27;;
19189;SDS011;9727;50.200;19.038;2024-01-30T12:27:26;15.20;;;7.10;;
19189;SDS011;9727;50.200;19.038;2024-01-30T12:29:56;12.97;;;7.40;;
19189;SDS011;9727;50.200;19.038;2024-01-30T12:32:23;12.60;;;7.20;;
19189;SDS011;9727;50.200;19.038;2024-01-30T12:34:49;12.23;;;7.10;;
19189;SDS011;9727;50.200;19.038;2024-01-30T12:37:22;14.97;;;7.23;;
19189;SDS011;9727;50.200;19.038;2024-01-30T12:39:51;20.00;;;7.77;;
19189;SDS011;9727;50.200;19.038;2024-01-30T12:42:21;14.93;;;7.53;;
19189;SDS011;9727;50.200;19.038;2024-01-30T12:44:47;13.10;;;7.57;;
19189;SDS011;9727;50.200;19.038;2024-01-30T12:47:14;13.63;;;7.37;;
19189;SDS011;9727;50.200;19.038;2024-01-30T12:49:45;14.17;;;7.73;;
19189;SDS011;9727;50.200;19.038;2024-01-30T12:52:12;13.50;;;7.17;;
19189;SDS011;9727;50.200;19.038;2024-01-30T12:54:39;13.60;;;7.47;;
19189;SDS011;9727;50.200;19.038;2024-01-30T12:57:07;12.97;;;7.13;;
19189;SDS011;9727;50.200;19.038;2024-01-30T12:59:34;12.90;;;7.57;;
19189;SDS011;9727;50.200;19.038;2024-01-30T13:02:00;14.80;;;7.23;;
19189;SDS011;9727;50.200;19.038;2024-01-30T13:04:28;13.57;;;7.03;;
19189;SDS011;9727;50.200;19.038;2024-01-30T13:06:54;12.67;;;6.73;;
19189;SDS011;9727;50.200;19.038;2024-01-30T13:09:22;12.53;;;7.80;;
19189;SDS011;9727;50.200;19.038;2024-01-30T13:11:49;13.43;;;7.27;;
19189;SDS011;9727;50.200;19.038;2024-01-30T13:14:21;12.77;;;7.10;;
19189;SDS011;9727;50.200;19.038;2024-01-30T13:16:47;13.53;;;6.90;;
19189;SDS011;9727;50.200;19.038;2024-01-30T13:19:14;12.67;;;7.10;;
19189;SDS011;9727;50.200;19.038;2024-01-30T13:21:44;14.10;;;7.47;;
19189;SDS011;9727;50.200;19.038;2024-01-30T13:24:11;16.00;;;7.47;;
19189;SDS011;9727;50.200;19.038;2024-01-30T13:26:37;14.13;;;7.30;;
19189;SDS011;9727;50.200;19.038;2024-01-30T13:29:04;11.67;;;6.80;;
19189;SDS011;9727;50.200;19.038;2024-01-30T13:31:32;12.20;;;7.10;;
19189;SDS011;9727;50.200;19.038;2024-01-30T13:33:59;12.43;;;6.90;;
19189;SDS011;9727;50.200;19.038;2024-01-30T13:36:26;14.40;;;7.30;;
19189;SDS011;9727;50.200;19.038;2024-01-30T13:38:52;15.07;;;7.80;;
19189;SDS011;9727;50.200;19.038;2024-01-30T13:41:20;14.63;;;7.17;;
19189;SDS011;9727;50.200;19.038;2024-01-30T13:43:48;11.63;;;7.03;;
19189;SDS011;9727;50.200;19.038;2024-01-30T13:46:14;14.10;;;7.13;;
19189;SDS011;9727;50.200;19.038;2024-01-30T13:48:42;13.30;;;8.20;;
19189;SDS011;9727;50.200;19.038;2024-01-30T13:51:08;13.27;;;7.17;;
19189;SDS011;9727;50.200;19.038;2024-01-30T13:53:36;12.00;;;6.60;;
19189;SDS011;9727;50.200;19.038;2024-01-30T13:56:02;11.47;;;6.90;;
19189;SDS011;9727;50.200;19.038;2024-01-30T13:58:29;10.77;;;6.27;;
19189;SDS011;9727;50.200;19.038;2024-01-30T14:00:55;12.43;;;6.57;;
19189;SDS011;9727;50.200;19.038;2024-01-30T14:03:22;11.30;;;7.00;;
19189;SDS011;9727;50.200;19.038;2024-01-30T14:05:50;12.30;;;6.70;;
19189;SDS011;9727;50.200;19.038;2024-01-30T14:08:20;14.07;;;7.60;;
19189;SDS011;9727;50.200;19.038;2024-01-30T14:10:49;14.10;;;7.17;;
19189;SDS011;9727;50.200;19.038;2024-01-30T14:13:15;11.13;;;6.70;;
19189;SDS011;9727;50.200;19.038;2024-01-30T14:15:45;16.27;;;7.60;;
19189;SDS011;9727;50.200;19.038;2024-01-30T14:18:11;13.27;;;7.50;;
19189;SDS011;9727;50.200;19.038;2024-01-30T14:20:38;13.07;;;7.20;;
19189;SDS011;9727;50.200;19.038;2024-01-30T14:23:06;14.20;;;7.90;;
19189;SDS011;9727;50.200;19.038;2024-01-30T14:25:32;15.53;;;7.43;;
19189;SDS011;9727;50.200;19.038;2024-01-30T14:27:59;12.03;;;7.37;;
19189;SDS011;9727;50.200;19.038;2024-01-30T14:30:25;12.87;;;6.97;;
19189;SDS011;9727;50.200;19.038;2024-01-30T14:32:52;15.60;;;6.90;;